sensor_id;sensor_type;location;lat;lon;timestamp;P1;durP1;ratioP1;P2;durP2;ratioP2
25263;SDS011;13211;51.796;5.808;2022-07-11T00:03:33;7.35;;;2.30;;
25263;SDS011;13211;51.796;5.808;2022-07-11T00:06:01;8.38;;;2.40;;
25263;SDS011;13211;51.796;5.808;2022-07-11T00:08:29;11.50;;;2.67;;
25263;SDS011;13211;51.796;5.808;2022-07-11T00:10:59;8.88;;;2.53;;
25263;SDS011;13211;51.796;5.808;2022-07-11T00:13:27;7.50;;;2.55;;
25263;SDS011;13211;51.796;5.808;2022-07-11T00:15:54;7.63;;;2.35;;
25263;SDS011;13211;51.796;5.808;2022-07-11T00:18:22;5.90;;;2.33;;
25263;SDS011;13211;51.796;5.808;2022-07-11T00:20:52;8.40;;;3.08;;
25263;SDS011;13211;51.796;5.808;2022-07-11T00:23:22;11.60;;;2.97;;
25263;SDS011;13211;51.796;5.808;2022-07-11T00:25:52;10.57;;;2.70;;
25263;SDS011;13211;51.796;5.808;2022-07-11T00:28:20;10.57;;;2.58;;
25263;SDS011;13211;51.796;5.808;2022-07-11T00:30:47;11.18;;;3.10;;
25263;SDS011;13211;51.796;5.808;2022-07-11T00:33:15;6.00;;;2.35;;
25263;SDS011;13211;51.796;5.808;2022-07-11T00:35:44;9.52;;;2.40;;
25263;SDS011;13211;51.796;5.808;2022-07-11T00:38:12;9.73;;;2.80;;
25263;SDS011;13211;51.796;5.808;2022-07-11T00:40:42;10.38;;;2.70;;
25263;SDS011;13211;51.796;5.808;2022-07-11T00:43:14;6.95;;;2.03;;
25263;SDS011;13211;51.796;5.808;2022-07-11T00:45:49;9.90;;;2.45;;
25263;SDS011;13211;51.796;5.808;2022-07-11T00:48:18;7.35;;;2.45;;
25263;SDS011;13211;51.796;5.808;2022-07-11T00:50:47;12.38;;;2.50;;
25263;SDS011;13211;51.796;5.808;2022-07-11T00:53:16;8.15;;;2.60;;
25263;SDS011;13211;51.796;5.808;2022-07-11T00:55:49;9.80;;;2.70;;
25263;SDS011;13211;51.796;5.808;2022-07-11T01:00:48;8.13;;;2.33;;
25263;SDS011;13211;51.796;5.808;2022-07-11T01:03:16;11.43;;;2.58;;
25263;SDS011;13211;51.796;5.808;2022-07-11T01:05:45;10.13;;;2.40;;
25263;SDS011;13211;51.796;5.808;2022-07-11T01:08:13;7.60;;;2.20;;
25263;SDS011;13211;51.796;5.808;2022-07-11T01:10:42;9.32;;;2.50;;
25263;SDS011;13211;51.796;5.808;2022-07-11T01:13:15;8.90;;;2.33;;
25263;SDS011;13211;51.796;5.808;2022-07-11T01:15:43;5.03;;;2.03;;
25263;SDS011;13211;51.796;5.808;2022-07-11T01:18:12;6.55;;;1.77;;
25263;SDS011;13211;51.796;5.808;2022-07-11T01:20:41;8.70;;;2.10;;
25263;SDS011;13211;51.796;5.808;2022-07-11T01:23:10;9.30;;;2.30;;
25263;SDS011;13211;51.796;5.808;2022-07-11T01:25:37;14.25;;;2.28;;
25263;SDS011;13211;51.796;5.808;2022-07-11T01:28:06;6.10;;;1.88;;
25263;SDS011;13211;51.796;5.808;2022-07-11T01:30:33;8.43;;;2.33;;
25263;SDS011;13211;51.796;5.808;2022-07-11T01:33:01;11.68;;;2.78;;
25263;SDS011;13211;51.796;5.808;2022-07-11T01:35:29;7.65;;;2.33;;
25263;SDS011;13211;51.796;5.808;2022-07-11T01:37:57;7.20;;;1.83;;
25263;SDS011;13211;51.796;5.808;2022-07-11T01:40:29;12.27;;;2.60;;
25263;SDS011;13211;51.796;5.808;2022-07-11T01:42:58;8.57;;;2.15;;
25263;SDS011;13211;51.796;5.808;2022-07-11T01:45:26;7.25;;;2.05;;
25263;SDS011;13211;51.796;5.808;2022-07-11T01:47:53;5.10;;;1.73;;
25263;SDS011;13211;51.796;5.808;2022-07-11T01:50:21;7.93;;;1.83;;
25263;SDS011;13211;51.796;5.808;2022-07-11T01:52:49;9.75;;;1.90;;
25263;SDS011;13211;51.796;5.808;2022-07-11T01:55:16;6.32;;;1.70;;
25263;SDS011;13211;51.796;5.808;2022-07-11T02:00:15;8.27;;;1.88;;
25263;SDS011;13211;51.796;5.808;2022-07-11T02:02:46;6.40;;;1.95;;
25263;SDS011;13211;51.796;5.808;2022-07-11T02:05:16;7.63;;;2.05;;
25263;SDS011;13211;51.796;5.808;2022-07-11T02:07:45;7.00;;;2.22;;
25263;SDS011;13211;51.796;5.808;2022-07-11T02:10:32;6.22;;;1.85;;
25263;SDS011;13211;51.796;5.808;2022-07-11T02:13:00;10.82;;;1.80;;
25263;SDS011;13211;51.796;5.808;2022-07-11T02:15:29;7.43;;;1.80;;
25263;SDS011;13211;51.796;5.808;2022-07-11T02:17:57;8.55;;;1.70;;
25263;SDS011;13211;51.796;5.808;2022-07-11T02:20:24;6.80;;;2.08;;
25263;SDS011;13211;51.796;5.808;2022-07-11T02:22:53;6.90;;;1.40;;
25263;SDS011;13211;51.796;5.808;2022-07-11T02:25:23;7.80;;;2.00;;
25263;SDS011;13211;51.796;5.808;2022-07-11T02:27:51;4.32;;;1.50;;
25263;SDS011;13211;51.796;5.808;2022-07-11T02:30:20;12.15;;;1.50;;
25263;SDS011;13211;51.796;5.808;2022-07-11T02:32:48;4.05;;;1.10;;
25263;SDS011;13211;51.796;5.808;2022-07-11T02:35:17;3.95;;;1.33;;
25263;SDS011;13211;51.796;5.808;2022-07-11T02:37:45;7.00;;;1.40;;
25263;SDS011;13211;51.796;5.808;2022-07-11T02:40:13;4.90;;;1.27;;
25263;SDS011;13211;51.796;5.808;2022-07-11T02:42:42;5.05;;;1.52;;
25263;SDS011;13211;51.796;5.808;2022-07-11T02:45:15;4.50;;;1.35;;
25263;SDS011;13211;51.796;5.808;2022-07-11T02:47:43;5.13;;;1.60;;
25263;SDS011;13211;51.796;5.808;2022-07-11T02:50:15;6.07;;;2.00;;
25263;SDS011;13211;51.796;5.808;2022-07-11T02:52:43;7.82;;;1.90;;
25263;SDS011;13211;51.796;5.808;2022-07-11T02:55:13;10.90;;;2.20;;
25263;SDS011;13211;51.796;5.808;2022-07-11T02:57:42;8.13;;;2.10;;
25263;SDS011;13211;51.796;5.808;2022-07-11T03:00:12;8.60;;;2.10;;
25263;SDS011;13211;51.796;5.808;2022-07-11T03:02:43;7.75;;;1.98;;
25263;SDS011;13211;51.796;5.808;2022-07-11T03:05:16;6.70;;;1.60;;
25263;SDS011;13211;51.796;5.808;2022-07-11T03:07:47;4.97;;;1.58;;
25263;SDS011;13211;51.796;5.808;2022-07-11T03:10:15;3.35;;;1.40;;
25263;SDS011;13211;51.796;5.808;2022-07-11T03:12:43;10.60;;;1.60;;
25263;SDS011;13211;51.796;5.808;2022-07-11T03:15:12;10.00;;;1.90;;
25263;SDS011;13211;51.796;5.808;2022-07-11T03:17:40;2.85;;;1.50;;
25263;SDS011;13211;51.796;5.808;2022-07-11T03:20:09;5.65;;;2.13;;
25263;SDS011;13211;51.796;5.808;2022-07-11T03:22:38;5.38;;;1.75;;
25263;SDS011;13211;51.796;5.808;2022-07-11T03:25:06;4.82;;;1.67;;
25263;SDS011;13211;51.796;5.808;2022-07-11T03:27:34;5.55;;;1.80;;
25263;SDS011;13211;51.796;5.808;2022-07-11T03:30:06;7.35;;;1.73;;
25263;SDS011;13211;51.796;5.808;2022-07-11T03:32:34;7.55;;;1.80;;
25263;SDS011;13211;51.796;5.808;2022-07-11T03:35:03;6.22;;;2.03;;
25263;SDS011;13211;51.796;5.808;2022-07-11T03:37:50;5.85;;;1.55;;
25263;SDS011;13211;51.796;5.808;2022-07-11T03:40:21;5.57;;;1.77;;
25263;SDS011;13211;51.796;5.808;2022-07-11T03:42:50;6.63;;;1.85;;
25263;SDS011;13211;51.796;5.808;2022-07-11T03:45:18;7.80;;;2.15;;
25263;SDS011;13211;51.796;5.808;2022-07-11T03:47:47;6.30;;;2.08;;
25263;SDS011;13211;51.796;5.808;2022-07-11T03:50:16;7.07;;;1.98;;
25263;SDS011;13211;51.796;5.808;2022-07-11T03:52:46;6.50;;;1.90;;
25263;SDS011;13211;51.796;5.808;2022-07-11T03:55:16;4.88;;;1.50;;
25263;SDS011;13211;51.796;5.808;2022-07-11T03:57:47;9.23;;;1.98;;
25263;SDS011;13211;51.796;5.808;2022-07-11T04:00:16;4.85;;;1.80;;
25263;SDS011;13211;51.796;5.808;2022-07-11T04:02:48;5.88;;;1.80;;
25263;SDS011;13211;51.796;5.808;2022-07-11T04:05:16;12.50;;;2.22;;
25263;SDS011;13211;51.796;5.808;2022-07-11T04:07:44;4.95;;;1.60;;
25263;SDS011;13211;51.796;5.808;2022-07-11T04:10:16;8.48;;;1.92;;
25263;SDS011;13211;51.796;5.808;2022-07-11T04:12:45;6.57;;;1.98;;
25263;SDS011;13211;51.796;5.808;2022-07-11T04:15:13;5.78;;;2.05;;
25263;SDS011;13211;51.796;5.808;2022-07-11T04:17:43;5.77;;;1.93;;
25263;SDS011;13211;51.796;5.808;2022-07-11T04:20:16;6.85;;;2.03;;
25263;SDS011;13211;51.796;5.808;2022-07-11T04:22:46;6.00;;;2.08;;
25263;SDS011;13211;51.796;5.808;2022-07-11T04:25:13;6.50;;;2.35;;
25263;SDS011;13211;51.796;5.808;2022-07-11T04:27:42;5.78;;;1.95;;
25263;SDS011;13211;51.796;5.808;2022-07-11T04:30:13;7.22;;;2.85;;
25263;SDS011;13211;51.796;5.808;2022-07-11T04:32:43;6.22;;;1.83;;
25263;SDS011;13211;51.796;5.808;2022-07-11T04:35:16;7.40;;;2.00;;
25263;SDS011;13211;51.796;5.808;2022-07-11T04:37:46;6.60;;;2.05;;
25263;SDS011;13211;51.796;5.808;2022-07-11T04:42:46;9.80;;;2.40;;
25263;SDS011;13211;51.796;5.808;2022-07-11T04:45:13;6.65;;;2.30;;
25263;SDS011;13211;51.796;5.808;2022-07-11T04:47:43;7.28;;;2.40;;
25263;SDS011;13211;51.796;5.808;2022-07-11T04:50:13;6.43;;;2.63;;
25263;SDS011;13211;51.796;5.808;2022-07-11T04:52:47;7.78;;;2.60;;
25263;SDS011;13211;51.796;5.808;2022-07-11T04:55:15;9.10;;;2.47;;
25263;SDS011;13211;51.796;5.808;2022-07-11T05:00:16;5.25;;;2.95;;
25263;SDS011;13211;51.796;5.808;2022-07-11T05:02:45;7.45;;;3.13;;
25263;SDS011;13211;51.796;5.808;2022-07-11T05:05:16;6.90;;;3.07;;
25263;SDS011;13211;51.796;5.808;2022-07-11T05:07:49;7.97;;;2.80;;
25263;SDS011;13211;51.796;5.808;2022-07-11T05:10:19;7.72;;;3.05;;
25263;SDS011;13211;51.796;5.808;2022-07-11T05:12:47;7.63;;;3.10;;
25263;SDS011;13211;51.796;5.808;2022-07-11T05:15:15;8.20;;;2.78;;
25263;SDS011;13211;51.796;5.808;2022-07-11T05:17:43;5.28;;;2.80;;
25263;SDS011;13211;51.796;5.808;2022-07-11T05:20:15;8.20;;;2.97;;
25263;SDS011;13211;51.796;5.808;2022-07-11T05:22:44;6.07;;;2.58;;
25263;SDS011;13211;51.796;5.808;2022-07-11T05:25:13;7.70;;;2.92;;
25263;SDS011;13211;51.796;5.808;2022-07-11T05:27:43;6.75;;;3.08;;
25263;SDS011;13211;51.796;5.808;2022-07-11T05:32:44;6.43;;;3.00;;
25263;SDS011;13211;51.796;5.808;2022-07-11T05:35:15;6.90;;;3.42;;
25263;SDS011;13211;51.796;5.808;2022-07-11T05:37:51;9.75;;;3.63;;
25263;SDS011;13211;51.796;5.808;2022-07-11T05:40:20;7.43;;;3.10;;
25263;SDS011;13211;51.796;5.808;2022-07-11T05:42:51;11.00;;;2.95;;
25263;SDS011;13211;51.796;5.808;2022-07-11T05:45:18;5.35;;;3.10;;
25263;SDS011;13211;51.796;5.808;2022-07-11T05:47:49;6.88;;;2.90;;
25263;SDS011;13211;51.796;5.808;2022-07-11T05:50:19;8.93;;;3.50;;
25263;SDS011;13211;51.796;5.808;2022-07-11T05:52:48;5.88;;;2.80;;
25263;SDS011;13211;51.796;5.808;2022-07-11T05:55:19;8.90;;;3.67;;
25263;SDS011;13211;51.796;5.808;2022-07-11T05:57:48;4.60;;;2.33;;
25263;SDS011;13211;51.796;5.808;2022-07-11T06:00:15;5.28;;;2.95;;
25263;SDS011;13211;51.796;5.808;2022-07-11T06:02:43;5.43;;;2.80;;
25263;SDS011;13211;51.796;5.808;2022-07-11T06:05:14;7.43;;;2.78;;
25263;SDS011;13211;51.796;5.808;2022-07-11T06:07:51;5.60;;;2.80;;
25263;SDS011;13211;51.796;5.808;2022-07-11T06:10:38;6.80;;;2.60;;
25263;SDS011;13211;51.796;5.808;2022-07-11T06:13:06;9.32;;;2.60;;
25263;SDS011;13211;51.796;5.808;2022-07-11T06:15:34;6.32;;;2.38;;
25263;SDS011;13211;51.796;5.808;2022-07-11T06:18:03;4.65;;;2.30;;
25263;SDS011;13211;51.796;5.808;2022-07-11T06:20:30;7.10;;;2.63;;
25263;SDS011;13211;51.796;5.808;2022-07-11T06:22:59;6.00;;;2.50;;
25263;SDS011;13211;51.796;5.808;2022-07-11T06:25:27;4.25;;;2.35;;
25263;SDS011;13211;51.796;5.808;2022-07-11T06:27:58;7.93;;;2.80;;
25263;SDS011;13211;51.796;5.808;2022-07-11T06:30:26;12.35;;;2.85;;
25263;SDS011;13211;51.796;5.808;2022-07-11T06:32:53;7.93;;;2.97;;
25263;SDS011;13211;51.796;5.808;2022-07-11T06:35:21;6.30;;;2.25;;
25263;SDS011;13211;51.796;5.808;2022-07-11T06:37:52;5.03;;;2.45;;
25263;SDS011;13211;51.796;5.808;2022-07-11T06:40:19;5.43;;;2.40;;
25263;SDS011;13211;51.796;5.808;2022-07-11T06:42:47;4.03;;;2.40;;
25263;SDS011;13211;51.796;5.808;2022-07-11T06:45:16;7.90;;;3.20;;
25263;SDS011;13211;51.796;5.808;2022-07-11T06:47:46;6.07;;;2.90;;
25263;SDS011;13211;51.796;5.808;2022-07-11T06:50:16;9.00;;;3.45;;
25263;SDS011;13211;51.796;5.808;2022-07-11T06:52:44;7.45;;;2.80;;
25263;SDS011;13211;51.796;5.808;2022-07-11T06:55:16;7.60;;;2.60;;
25263;SDS011;13211;51.796;5.808;2022-07-11T06:57:45;5.40;;;2.92;;
25263;SDS011;13211;51.796;5.808;2022-07-11T07:00:37;4.78;;;2.35;;
25263;SDS011;13211;51.796;5.808;2022-07-11T07:03:04;6.68;;;2.83;;
25263;SDS011;13211;51.796;5.808;2022-07-11T07:05:46;4.90;;;2.70;;
25263;SDS011;13211;51.796;5.808;2022-07-11T07:08:16;4.53;;;2.70;;
25263;SDS011;13211;51.796;5.808;2022-07-11T07:10:47;5.28;;;3.00;;
25263;SDS011;13211;51.796;5.808;2022-07-11T07:13:16;5.35;;;2.90;;
25263;SDS011;13211;51.796;5.808;2022-07-11T07:15:46;5.47;;;2.75;;
25263;SDS011;13211;51.796;5.808;2022-07-11T07:18:15;4.55;;;2.85;;
25263;SDS011;13211;51.796;5.808;2022-07-11T07:20:43;4.85;;;3.08;;
25263;SDS011;13211;51.796;5.808;2022-07-11T07:23:15;6.25;;;3.22;;
25263;SDS011;13211;51.796;5.808;2022-07-11T07:25:44;5.88;;;2.95;;
25263;SDS011;13211;51.796;5.808;2022-07-11T07:28:15;5.85;;;2.67;;
25263;SDS011;13211;51.796;5.808;2022-07-11T07:30:43;4.03;;;2.40;;
25263;SDS011;13211;51.796;5.808;2022-07-11T07:33:17;6.03;;;2.80;;
25263;SDS011;13211;51.796;5.808;2022-07-11T07:36:06;6.03;;;2.75;;
25263;SDS011;13211;51.796;5.808;2022-07-11T07:38:36;6.40;;;2.97;;
25263;SDS011;13211;51.796;5.808;2022-07-11T07:41:07;6.20;;;2.90;;
25263;SDS011;13211;51.796;5.808;2022-07-11T07:43:34;5.85;;;2.70;;
25263;SDS011;13211;51.796;5.808;2022-07-11T07:46:02;3.85;;;2.55;;
25263;SDS011;13211;51.796;5.808;2022-07-11T07:48:32;12.17;;;3.03;;
25263;SDS011;13211;51.796;5.808;2022-07-11T07:51:02;6.18;;;2.70;;
25263;SDS011;13211;51.796;5.808;2022-07-11T07:53:30;5.13;;;2.53;;
25263;SDS011;13211;51.796;5.808;2022-07-11T07:55:58;6.45;;;2.70;;
25263;SDS011;13211;51.796;5.808;2022-07-11T07:58:27;3.65;;;2.00;;
25263;SDS011;13211;51.796;5.808;2022-07-11T08:00:55;4.28;;;2.10;;
25263;SDS011;13211;51.796;5.808;2022-07-11T08:03:32;4.78;;;2.38;;
25263;SDS011;13211;51.796;5.808;2022-07-11T08:06:01;3.33;;;1.80;;
25263;SDS011;13211;51.796;5.808;2022-07-11T08:08:29;4.07;;;1.95;;
25263;SDS011;13211;51.796;5.808;2022-07-11T08:10:56;4.65;;;2.15;;
25263;SDS011;13211;51.796;5.808;2022-07-11T08:13:50;2.92;;;1.90;;
25263;SDS011;13211;51.796;5.808;2022-07-11T08:16:19;4.72;;;2.40;;
25263;SDS011;13211;51.796;5.808;2022-07-11T08:18:47;3.65;;;1.60;;
25263;SDS011;13211;51.796;5.808;2022-07-11T08:21:15;3.00;;;1.60;;
25263;SDS011;13211;51.796;5.808;2022-07-11T08:23:45;3.23;;;1.80;;
25263;SDS011;13211;51.796;5.808;2022-07-11T08:26:13;2.78;;;1.50;;
25263;SDS011;13211;51.796;5.808;2022-07-11T08:28:46;6.35;;;1.90;;
25263;SDS011;13211;51.796;5.808;2022-07-11T08:31:15;3.58;;;1.50;;
25263;SDS011;13211;51.796;5.808;2022-07-11T08:33:45;4.57;;;1.65;;
25263;SDS011;13211;51.796;5.808;2022-07-11T08:36:13;4.30;;;1.88;;
25263;SDS011;13211;51.796;5.808;2022-07-11T08:38:42;2.60;;;1.45;;
25263;SDS011;13211;51.796;5.808;2022-07-11T08:41:13;2.15;;;1.77;;
25263;SDS011;13211;51.796;5.808;2022-07-11T08:43:47;3.70;;;2.05;;
25263;SDS011;13211;51.796;5.808;2022-07-11T08:46:20;2.90;;;2.03;;
25263;SDS011;13211;51.796;5.808;2022-07-11T08:48:48;6.75;;;2.35;;
25263;SDS011;13211;51.796;5.808;2022-07-11T08:51:20;3.55;;;2.00;;
25263;SDS011;13211;51.796;5.808;2022-07-11T08:53:51;4.18;;;1.90;;
25263;SDS011;13211;51.796;5.808;2022-07-11T08:56:19;5.00;;;1.55;;
25263;SDS011;13211;51.796;5.808;2022-07-11T08:58:49;3.30;;;1.60;;
25263;SDS011;13211;51.796;5.808;2022-07-11T09:01:40;4.05;;;1.80;;
25263;SDS011;13211;51.796;5.808;2022-07-11T09:04:12;2.30;;;1.45;;
25263;SDS011;13211;51.796;5.808;2022-07-11T09:06:46;4.03;;;1.92;;
25263;SDS011;13211;51.796;5.808;2022-07-11T09:09:15;4.43;;;1.60;;
25263;SDS011;13211;51.796;5.808;2022-07-11T09:11:53;2.00;;;1.42;;
25263;SDS011;13211;51.796;5.808;2022-07-11T09:14:25;2.75;;;1.60;;
25263;SDS011;13211;51.796;5.808;2022-07-11T09:19:24;3.22;;;1.15;;
25263;SDS011;13211;51.796;5.808;2022-07-11T09:21:58;2.92;;;1.30;;
25263;SDS011;13211;51.796;5.808;2022-07-11T09:27:52;2.03;;;1.38;;
25263;SDS011;13211;51.796;5.808;2022-07-11T09:30:29;3.38;;;1.50;;
25263;SDS011;13211;51.796;5.808;2022-07-11T09:33:06;2.33;;;1.42;;
25263;SDS011;13211;51.796;5.808;2022-07-11T09:35:43;2.88;;;1.60;;
25263;SDS011;13211;51.796;5.808;2022-07-11T09:38:13;2.47;;;1.60;;
25263;SDS011;13211;51.796;5.808;2022-07-11T09:40:44;3.60;;;2.10;;
25263;SDS011;13211;51.796;5.808;2022-07-11T09:43:13;3.05;;;1.65;;
25263;SDS011;13211;51.796;5.808;2022-07-11T09:45:50;2.05;;;1.75;;
25263;SDS011;13211;51.796;5.808;2022-07-11T09:48:18;2.90;;;1.90;;
25263;SDS011;13211;51.796;5.808;2022-07-11T09:50:56;3.30;;;1.95;;
25263;SDS011;13211;51.796;5.808;2022-07-11T09:53:27;3.58;;;2.10;;
25263;SDS011;13211;51.796;5.808;2022-07-11T09:55:55;3.40;;;1.75;;
25263;SDS011;13211;51.796;5.808;2022-07-11T09:58:27;5.43;;;1.83;;
25263;SDS011;13211;51.796;5.808;2022-07-11T10:00:56;3.10;;;1.80;;
25263;SDS011;13211;51.796;5.808;2022-07-11T10:03:24;2.42;;;1.95;;
25263;SDS011;13211;51.796;5.808;2022-07-11T10:06:12;4.25;;;2.00;;
25263;SDS011;13211;51.796;5.808;2022-07-11T10:08:41;2.97;;;1.92;;
25263;SDS011;13211;51.796;5.808;2022-07-11T10:11:09;2.42;;;1.38;;
25263;SDS011;13211;51.796;5.808;2022-07-11T10:13:38;1.90;;;1.50;;
25263;SDS011;13211;51.796;5.808;2022-07-11T10:16:31;3.33;;;1.10;;
25263;SDS011;13211;51.796;5.808;2022-07-11T10:21:46;2.25;;;0.95;;
25263;SDS011;13211;51.796;5.808;2022-07-11T10:24:28;5.00;;;1.20;;
25263;SDS011;13211;51.796;5.808;2022-07-11T10:27:14;2.63;;;0.90;;
25263;SDS011;13211;51.796;5.808;2022-07-11T10:30:07;0.93;;;0.80;;
25263;SDS011;13211;51.796;5.808;2022-07-11T10:32:58;2.65;;;1.00;;
25263;SDS011;13211;51.796;5.808;2022-07-11T10:35:26;2.78;;;1.20;;
25263;SDS011;13211;51.796;5.808;2022-07-11T10:37:56;2.55;;;1.08;;
25263;SDS011;13211;51.796;5.808;2022-07-11T10:43:15;2.20;;;1.10;;
25263;SDS011;13211;51.796;5.808;2022-07-11T10:46:15;1.80;;;1.33;;
25263;SDS011;13211;51.796;5.808;2022-07-11T11:00:04;3.72;;;1.20;;
25263;SDS011;13211;51.796;5.808;2022-07-11T11:05:39;1.73;;;1.10;;
25263;SDS011;13211;51.796;5.808;2022-07-11T11:11:06;1.40;;;1.00;;
25263;SDS011;13211;51.796;5.808;2022-07-11T11:13:36;2.15;;;1.30;;
25263;SDS011;13211;51.796;5.808;2022-07-11T11:16:24;2.70;;;0.70;;
25263;SDS011;13211;51.796;5.808;2022-07-11T11:18:55;1.23;;;0.85;;
25263;SDS011;13211;51.796;5.808;2022-07-11T11:21:26;2.78;;;0.70;;
25263;SDS011;13211;51.796;5.808;2022-07-11T11:29:23;0.80;;;0.60;;
25263;SDS011;13211;51.796;5.808;2022-07-11T11:31:57;0.75;;;0.70;;
25263;SDS011;13211;51.796;5.808;2022-07-11T11:34:27;1.70;;;0.73;;
25263;SDS011;13211;51.796;5.808;2022-07-11T11:36:55;0.63;;;0.50;;
25263;SDS011;13211;51.796;5.808;2022-07-11T11:39:26;0.95;;;0.68;;
25263;SDS011;13211;51.796;5.808;2022-07-11T11:42:16;0.77;;;0.70;;
25263;SDS011;13211;51.796;5.808;2022-07-11T11:44:48;1.90;;;0.70;;
25263;SDS011;13211;51.796;5.808;2022-07-11T11:47:18;2.38;;;1.33;;
25263;SDS011;13211;51.796;5.808;2022-07-11T11:49:47;1.02;;;0.70;;
25263;SDS011;13211;51.796;5.808;2022-07-11T11:52:18;2.13;;;0.73;;
25263;SDS011;13211;51.796;5.808;2022-07-11T11:54:50;6.65;;;0.80;;
25263;SDS011;13211;51.796;5.808;2022-07-11T11:57:20;1.38;;;0.90;;
25263;SDS011;13211;51.796;5.808;2022-07-11T11:59:49;1.88;;;0.75;;
25263;SDS011;13211;51.796;5.808;2022-07-11T12:02:24;2.85;;;0.90;;
25263;SDS011;13211;51.796;5.808;2022-07-11T12:05:06;0.82;;;0.60;;
25263;SDS011;13211;51.796;5.808;2022-07-11T12:07:35;0.95;;;0.82;;
25263;SDS011;13211;51.796;5.808;2022-07-11T12:10:04;1.23;;;0.85;;
25263;SDS011;13211;51.796;5.808;2022-07-11T12:12:33;1.67;;;0.80;;
25263;SDS011;13211;51.796;5.808;2022-07-11T12:17:59;3.67;;;0.85;;
25263;SDS011;13211;51.796;5.808;2022-07-11T12:20:36;1.85;;;0.90;;
25263;SDS011;13211;51.796;5.808;2022-07-11T12:23:09;1.92;;;1.05;;
25263;SDS011;13211;51.796;5.808;2022-07-11T12:25:49;2.60;;;1.10;;
25263;SDS011;13211;51.796;5.808;2022-07-11T12:28:19;1.58;;;1.02;;
25263;SDS011;13211;51.796;5.808;2022-07-11T12:30:55;2.35;;;1.10;;
25263;SDS011;13211;51.796;5.808;2022-07-11T12:33:29;3.40;;;1.15;;
25263;SDS011;13211;51.796;5.808;2022-07-11T12:35:59;5.75;;;0.80;;
25263;SDS011;13211;51.796;5.808;2022-07-11T12:38:49;3.28;;;1.00;;
25263;SDS011;13211;51.796;5.808;2022-07-11T12:41:19;3.75;;;1.02;;
25263;SDS011;13211;51.796;5.808;2022-07-11T12:43:50;3.05;;;0.70;;
25263;SDS011;13211;51.796;5.808;2022-07-11T12:46:38;1.65;;;0.88;;
25263;SDS011;13211;51.796;5.808;2022-07-11T12:49:08;0.95;;;0.60;;
25263;SDS011;13211;51.796;5.808;2022-07-11T12:51:39;1.45;;;0.73;;
25263;SDS011;13211;51.796;5.808;2022-07-11T12:54:15;2.25;;;0.80;;
25263;SDS011;13211;51.796;5.808;2022-07-11T12:56:51;1.53;;;0.67;;
25263;SDS011;13211;51.796;5.808;2022-07-11T12:59:25;1.08;;;0.52;;
25263;SDS011;13211;51.796;5.808;2022-07-11T13:02:04;1.77;;;0.70;;
25263;SDS011;13211;51.796;5.808;2022-07-11T13:04:47;8.52;;;1.02;;
25263;SDS011;13211;51.796;5.808;2022-07-11T13:10:18;1.00;;;0.60;;
25263;SDS011;13211;51.796;5.808;2022-07-11T13:12:54;1.67;;;0.65;;
25263;SDS011;13211;51.796;5.808;2022-07-11T13:15:23;1.23;;;0.70;;
25263;SDS011;13211;51.796;5.808;2022-07-11T13:17:54;0.55;;;0.45;;
25263;SDS011;13211;51.796;5.808;2022-07-11T13:20:24;0.95;;;0.60;;
25263;SDS011;13211;51.796;5.808;2022-07-11T13:22:56;0.73;;;0.40;;
25263;SDS011;13211;51.796;5.808;2022-07-11T13:25:25;2.17;;;0.52;;
25263;SDS011;13211;51.796;5.808;2022-07-11T13:27:58;1.20;;;0.60;;
25263;SDS011;13211;51.796;5.808;2022-07-11T13:30:27;1.45;;;0.70;;
25263;SDS011;13211;51.796;5.808;2022-07-11T13:33:18;0.75;;;0.43;;
25263;SDS011;13211;51.796;5.808;2022-07-11T13:35:49;1.80;;;0.70;;
25263;SDS011;13211;51.796;5.808;2022-07-11T13:38:21;1.25;;;0.60;;
25263;SDS011;13211;51.796;5.808;2022-07-11T13:40:50;1.23;;;0.75;;
25263;SDS011;13211;51.796;5.808;2022-07-11T13:43:20;3.55;;;0.80;;
25263;SDS011;13211;51.796;5.808;2022-07-11T13:45:55;1.60;;;0.63;;
25263;SDS011;13211;51.796;5.808;2022-07-11T13:48:23;0.82;;;0.50;;
25263;SDS011;13211;51.796;5.808;2022-07-11T13:50:53;6.80;;;0.80;;
25263;SDS011;13211;51.796;5.808;2022-07-11T13:53:21;3.20;;;0.60;;
25263;SDS011;13211;51.796;5.808;2022-07-11T13:55:50;1.98;;;0.80;;
25263;SDS011;13211;51.796;5.808;2022-07-11T13:58:19;1.90;;;0.60;;
25263;SDS011;13211;51.796;5.808;2022-07-11T14:00:59;1.02;;;0.50;;
25263;SDS011;13211;51.796;5.808;2022-07-11T14:03:30;4.68;;;0.70;;
25263;SDS011;13211;51.796;5.808;2022-07-11T14:05:59;4.07;;;0.70;;
25263;SDS011;13211;51.796;5.808;2022-07-11T14:08:34;1.10;;;0.50;;
25263;SDS011;13211;51.796;5.808;2022-07-11T14:11:02;2.47;;;0.50;;
25263;SDS011;13211;51.796;5.808;2022-07-11T14:13:31;0.98;;;0.47;;
25263;SDS011;13211;51.796;5.808;2022-07-11T14:16:03;1.38;;;0.40;;
25263;SDS011;13211;51.796;5.808;2022-07-11T14:18:53;1.42;;;0.40;;
25263;SDS011;13211;51.796;5.808;2022-07-11T14:21:21;0.98;;;0.43;;
25263;SDS011;13211;51.796;5.808;2022-07-11T14:23:50;0.68;;;0.40;;
25263;SDS011;13211;51.796;5.808;2022-07-11T14:26:19;0.98;;;0.40;;
25263;SDS011;13211;51.796;5.808;2022-07-11T14:28:51;1.45;;;0.65;;
25263;SDS011;13211;51.796;5.808;2022-07-11T14:31:18;2.92;;;0.60;;
25263;SDS011;13211;51.796;5.808;2022-07-11T14:33:53;1.23;;;0.50;;
25263;SDS011;13211;51.796;5.808;2022-07-11T14:36:26;1.60;;;0.40;;
25263;SDS011;13211;51.796;5.808;2022-07-11T14:38:54;1.55;;;0.60;;
25263;SDS011;13211;51.796;5.808;2022-07-11T14:41:25;1.13;;;0.35;;
25263;SDS011;13211;51.796;5.808;2022-07-11T14:43:55;1.08;;;0.40;;
25263;SDS011;13211;51.796;5.808;2022-07-11T14:46:24;1.55;;;0.30;;
25263;SDS011;13211;51.796;5.808;2022-07-11T14:48:55;1.92;;;0.50;;
25263;SDS011;13211;51.796;5.808;2022-07-11T14:51:25;2.70;;;0.60;;
25263;SDS011;13211;51.796;5.808;2022-07-11T14:54:13;1.25;;;0.50;;
25263;SDS011;13211;51.796;5.808;2022-07-11T14:56:47;3.20;;;0.65;;
25263;SDS011;13211;51.796;5.808;2022-07-11T14:59:16;2.60;;;0.30;;
25263;SDS011;13211;51.796;5.808;2022-07-11T15:01:46;1.05;;;0.40;;
25263;SDS011;13211;51.796;5.808;2022-07-11T15:04:15;1.52;;;0.52;;
25263;SDS011;13211;51.796;5.808;2022-07-11T15:06:45;1.08;;;0.40;;
25263;SDS011;13211;51.796;5.808;2022-07-11T15:09:34;0.55;;;0.30;;
25263;SDS011;13211;51.796;5.808;2022-07-11T15:12:20;1.05;;;0.40;;
25263;SDS011;13211;51.796;5.808;2022-07-11T15:14:51;0.55;;;0.22;;
25263;SDS011;13211;51.796;5.808;2022-07-11T15:17:20;1.35;;;0.20;;
25263;SDS011;13211;51.796;5.808;2022-07-11T15:19:49;0.20;;;0.20;;
25263;SDS011;13211;51.796;5.808;2022-07-11T15:22:17;0.40;;;0.20;;
25263;SDS011;13211;51.796;5.808;2022-07-11T15:24:48;0.52;;;0.30;;
25263;SDS011;13211;51.796;5.808;2022-07-11T15:27:16;1.35;;;0.20;;
25263;SDS011;13211;51.796;5.808;2022-07-11T15:29:45;0.50;;;0.28;;
25263;SDS011;13211;51.796;5.808;2022-07-11T15:32:13;0.98;;;0.20;;
25263;SDS011;13211;51.796;5.808;2022-07-11T15:34:42;0.28;;;0.20;;
25263;SDS011;13211;51.796;5.808;2022-07-11T15:37:16;1.02;;;0.28;;
25263;SDS011;13211;51.796;5.808;2022-07-11T15:39:45;0.20;;;0.20;;
25263;SDS011;13211;51.796;5.808;2022-07-11T15:42:15;1.10;;;0.30;;
25263;SDS011;13211;51.796;5.808;2022-07-11T15:47:16;0.75;;;0.28;;
25263;SDS011;13211;51.796;5.808;2022-07-11T15:49:43;0.43;;;0.20;;
25263;SDS011;13211;51.796;5.808;2022-07-11T15:52:15;0.47;;;0.30;;
25263;SDS011;13211;51.796;5.808;2022-07-11T15:54:47;1.30;;;0.30;;
25263;SDS011;13211;51.796;5.808;2022-07-11T15:57:17;3.08;;;0.20;;
25263;SDS011;13211;51.796;5.808;2022-07-11T15:59:48;2.22;;;0.28;;
25263;SDS011;13211;51.796;5.808;2022-07-11T16:02:18;1.08;;;0.20;;
25263;SDS011;13211;51.796;5.808;2022-07-11T16:04:47;0.80;;;0.30;;
25263;SDS011;13211;51.796;5.808;2022-07-11T16:07:18;3.10;;;0.30;;
25263;SDS011;13211;51.796;5.808;2022-07-11T16:09:46;0.95;;;0.38;;